createdAt,value
2022-08-23T00:05:09.720Z,73.90
2022-08-23T00:10:16.844Z,74.17
2022-08-23T00:15:20.681Z,73.72
2022-08-23T00:20:23.868Z,73.76
2022-08-23T00:25:28.011Z,73.79
2022-08-23T00:30:32.267Z,73.65
2022-08-23T00:35:37.635Z,74.32
2022-08-23T00:40:41.432Z,74.79
2022-08-23T00:46:37.131Z,74.53
2022-08-23T00:51:57.931Z,74.13
2022-08-23T00:57:05.978Z,74.86
2022-08-23T01:02:10.447Z,74.19
2022-08-23T01:07:47.515Z,74.50
2022-08-23T01:12:57.656Z,74.16
2022-08-23T01:18:08.487Z,72.75
2022-08-23T01:23:26.783Z,71.82
2022-08-23T01:28:29.824Z,71.05
2022-08-23T01:33:33.310Z,71.42
2022-08-23T01:38:38.139Z,71.30
2022-08-23T01:43:41.833Z,71.73
2022-08-23T01:48:47.427Z,71.99
2022-08-23T01:53:51.766Z,72.29
2022-08-23T01:58:57.342Z,70.57
2022-08-23T02:04:09.207Z,70.10
2022-08-23T02:09:17.910Z,68.73
2022-08-23T02:14:22.917Z,67.98
2022-08-23T02:19:29.587Z,68.22
2022-08-23T02:24:33.236Z,68.36
2022-08-23T02:29:39.528Z,68.71
2022-08-23T02:34:57.785Z,69.67
2022-08-23T02:40:11.497Z,69.90
2022-08-23T02:45:14.803Z,71.89
2022-08-23T02:50:23.744Z,73.05
2022-08-23T02:55:29.487Z,73.86
2022-08-23T03:00:33.498Z,73.61
2022-08-23T03:05:38.822Z,74.80
2022-08-23T03:10:47.971Z,74.67
2022-08-23T03:15:51.178Z,74.81
2022-08-23T03:20:54.700Z,75.29
2022-08-23T03:25:59.721Z,74.26
2022-08-23T03:31:06.805Z,74.54
2022-08-23T03:36:17.416Z,74.15
2022-08-23T03:41:20.728Z,74.56
2022-08-23T03:46:24.656Z,74.86
2022-08-23T03:51:35.036Z,74.97
2022-08-23T03:56:51.304Z,74.27
2022-08-23T04:01:55.139Z,74.23
2022-08-23T04:06:59.026Z,73.51
2022-08-23T04:12:03.242Z,71.84
2022-08-23T04:17:08.008Z,71.59
2022-08-23T04:22:14.242Z,71.92
2022-08-23T04:27:18.479Z,70.69
2022-08-23T04:32:26.633Z,70.67
2022-08-23T04:37:35.665Z,70.03
2022-08-23T04:42:41.479Z,67.87
2022-08-23T04:47:45.517Z,67.76
2022-08-23T04:52:49.188Z,66.12
2022-08-23T04:57:54.624Z,67.81
2022-08-23T05:03:03.778Z,69.04
2022-08-23T05:08:07.463Z,68.73
2022-08-23T05:13:11.295Z,66.31
2022-08-23T05:18:15.178Z,65.26
2022-08-23T05:23:18.939Z,62.51
2022-08-23T05:28:35.452Z,61.51
2022-08-23T05:33:41.065Z,59.00
2022-08-23T05:38:47.762Z,58.23
2022-08-23T05:43:51.180Z,55.50
2022-08-23T05:48:54.381Z,54.28
2022-08-23T05:54:02.289Z,53.99
2022-08-23T05:59:12.522Z,55.61
2022-08-23T06:04:17.802Z,56.44
2022-08-23T06:09:22.062Z,55.15
2022-08-23T06:14:25.829Z,52.59
2022-08-23T06:19:28.959Z,52.47
2022-08-23T06:24:46.808Z,41.96
2022-08-23T06:29:51.998Z,34.84
2022-08-23T06:35:37.804Z,31.06
2022-08-23T06:40:35.733Z,31.44
2022-08-23T06:46:09.287Z,33.32
2022-08-23T06:51:24.505Z,31.93
2022-08-23T06:56:33.315Z,33.05
2022-08-23T07:01:48.927Z,33.87
2022-08-23T07:07:02.146Z,36.05
2022-08-23T07:12:07.103Z,35.95
2022-08-23T07:17:13.005Z,34.47
2022-08-23T07:22:17.536Z,33.40
2022-08-23T07:27:21.460Z,33.41
2022-08-23T07:32:37.066Z,31.60
2022-08-23T07:38:00.852Z,33.34
2022-08-23T07:43:11.170Z,33.71
2022-08-23T07:48:27.376Z,32.48
2022-08-23T07:53:47.119Z,33.37
2022-08-23T07:58:53.430Z,34.53
2022-08-23T08:04:16.174Z,31.37
2022-08-23T08:09:22.781Z,31.57
2022-08-23T08:14:26.707Z,33.70
2022-08-23T08:19:33.970Z,37.47
2022-08-23T08:25:03.016Z,34.36
2022-08-23T08:30:08.486Z,36.30
2022-08-23T08:35:12.471Z,34.41
2022-08-23T08:40:21.514Z,35.66
2022-08-23T08:45:27.902Z,35.11
2022-08-23T08:50:45.869Z,36.25
2022-08-23T08:55:56.187Z,37.42
2022-08-23T09:01:00.760Z,38.39
2022-08-23T09:06:28.575Z,38.82
2022-08-23T09:11:51.567Z,37.04
2022-08-23T09:17:05.679Z,36.92
2022-08-23T09:22:19.581Z,36.28
2022-08-23T09:27:23.214Z,40.47
2022-08-23T09:32:36.430Z,39.48
2022-08-23T09:38:05.126Z,38.17
2022-08-23T09:43:17.781Z,37.46
2022-08-23T09:48:38.633Z,38.26
2022-08-23T09:53:51.753Z,40.03
2022-08-23T09:58:56.196Z,38.86
2022-08-23T10:04:16.785Z,37.95
2022-08-23T10:09:28.652Z,39.39
2022-08-23T10:14:33.915Z,39.60
2022-08-23T10:20:15.684Z,39.39
2022-08-23T10:25:31.177Z,45.46
2022-08-23T10:30:54.981Z,53.92
2022-08-23T10:36:05.434Z,62.21
